Time;durP1;ratioP1;P1;durP2;ratioP2;P2;SDS_P1;SDS_P2;PMS_P1;PMS_P2;Temp;Humidity;BMP_temperature;BMP_pressure;BME280_temperature;BME280_humidity;BME280_pressure;Samples;Min_cycle;Max_cycle;Signal;HPM_P1;HPM_P2
2022/07/10 00:00:48;;;;;;;7.03;6.20;;;;;;;;;;5079701;28;20435;-55
2022/07/10 00:03:28;;;;;;;7.57;6.77;;;;;;;;;;5077007;28;20443;-52
2022/07/10 00:05:58;;;;;;;7.07;6.47;;;;;;;;;;5080656;28;20456;-52
2022/07/10 00:08:24;;;;;;;6.80;5.83;;;;;;;;;;5081381;28;20621;-53
2022/07/10 00:10:50;;;;;;;7.07;6.37;;;;;;;;;;5085342;28;20439;-53
2022/07/10 00:13:26;;;;;;;6.03;5.50;;;;;;;;;;5059234;28;20733;-53
2022/07/10 00:15:51;;;;;;;5.80;5.30;;;;;;;;;;5084198;28;20444;-53
2022/07/10 00:18:45;;;;;;;8.77;6.03;;;;;;;;;;5091341;28;20435;-53
2022/07/10 00:21:13;;;;;;;8.10;5.63;;;;;;;;;;5084504;28;20425;-54
2022/07/10 00:23:39;;;;;;;5.80;5.30;;;;;;;;;;5081059;28;20483;-54
2022/07/10 00:26:05;;;;;;;5.87;5.37;;;;;;;;;;5087365;28;20812;-54
2022/07/10 00:28:32;;;;;;;6.67;5.97;;;;;;;;;;5066555;28;20493;-52
2022/07/10 00:30:58;;;;;;;6.47;5.67;;;;;;;;;;5085553;28;20485;-54
2022/07/10 00:33:27;;;;;;;5.67;5.17;;;;;;;;;;5072976;28;20441;-53
2022/07/10 00:35:53;;;;;;;7.00;6.23;;;;;;;;;;5084753;28;20432;-53
2022/07/10 00:38:25;;;;;;;6.70;6.10;;;;;;;;;;5075262;28;20928;-52
2022/07/10 00:40:51;;;;;;;7.50;6.03;;;;;;;;;;5087350;28;21041;-52
2022/07/10 00:43:27;;;;;;;5.60;5.00;;;;;;;;;;5062399;28;20530;-52
2022/07/10 00:45:53;;;;;;;6.07;5.47;;;;;;;;;;5080714;28;20997;-54
2022/07/10 00:48:32;;;;;;;9.33;5.50;;;;;;;;;;5078990;28;20541;-53
2022/07/10 00:50:58;;;;;;;7.83;5.10;;;;;;;;;;5083456;28;20460;-53
2022/07/10 00:53:25;;;;;;;5.60;5.10;;;;;;;;;;5065820;28;20463;-52
2022/07/10 00:55:52;;;;;;;5.10;4.70;;;;;;;;;;5085502;28;20488;-53
2022/07/10 00:58:23;;;;;;;5.80;5.23;;;;;;;;;;5078836;28;20698;-52
2022/07/10 01:00:49;;;;;;;5.90;5.30;;;;;;;;;;5085626;28;20429;-52
2022/07/10 01:03:40;;;;;;;7.83;5.03;;;;;;;;;;5082275;28;21797;-54
2022/07/10 01:06:06;;;;;;;6.80;5.70;;;;;;;;;;5083790;28;20533;-53
2022/07/10 01:08:33;;;;;;;5.70;5.10;;;;;;;;;;5069043;28;20511;-56
2022/07/10 01:10:59;;;;;;;6.33;5.73;;;;;;;;;;5085902;28;20440;-54
2022/07/10 01:13:40;;;;;;;6.00;5.10;;;;;;;;;;5078240;28;21207;-52
2022/07/10 01:16:09;;;;;;;7.57;5.83;;;;;;;;;;5057379;28;20510;-52
2022/07/10 01:18:35;;;;;;;5.53;5.03;;;;;;;;;;5065477;28;20706;-53
2022/07/10 01:21:01;;;;;;;5.93;5.33;;;;;;;;;;5082427;28;20632;-52
2022/07/10 01:23:28;;;;;;;6.30;4.97;;;;;;;;;;5054928;28;20440;-54
2022/07/10 01:25:54;;;;;;;7.27;5.53;;;;;;;;;;5083956;28;20424;-52
2022/07/10 01:28:23;;;;;;;6.97;6.37;;;;;;;;;;5071340;28;20467;-53
2022/07/10 01:30:49;;;;;;;5.90;5.40;;;;;;;;;;5084612;28;20473;-55
2022/07/10 01:33:16;;;;;;;7.33;5.73;;;;;;;;;;5063115;28;20512;-53
2022/07/10 01:35:42;;;;;;;6.40;5.80;;;;;;;;;;5083450;28;20433;-52
2022/07/10 01:38:08;;;;;;;7.00;6.30;;;;;;;;;;5066057;28;20448;-52
2022/07/10 01:40:35;;;;;;;6.67;6.07;;;;;;;;;;5067121;28;20509;-57
2022/07/10 01:43:01;;;;;;;5.70;5.20;;;;;;;;;;5082940;28;20518;-52
2022/07/10 01:45:27;;;;;;;6.43;5.80;;;;;;;;;;5095471;28;20472;-53
2022/07/10 01:47:54;;;;;;;7.17;6.50;;;;;;;;;;5084027;28;20472;-56
2022/07/10 01:50:26;;;;;;;7.70;6.80;;;;;;;;;;5079332;28;20902;-54
2022/07/10 01:52:55;;;;;;;8.00;7.17;;;;;;;;;;5082995;28;20507;-54
2022/07/10 01:58:24;;;;;;;7.50;6.63;;;;;;;;;;5064787;28;20659;-54
2022/07/10 02:00:54;;;;;;;7.50;6.20;;;;;;;;;;5090937;28;20491;-52
2022/07/10 02:06:05;;;;;;;7.43;6.73;;;;;;;;;;5067051;28;21293;-53
2022/07/10 02:08:33;;;;;;;10.40;7.73;;;;;;;;;;5089397;28;20448;-53
2022/07/10 02:10:59;;;;;;;8.20;7.47;;;;;;;;;;5063006;28;21766;-51
2022/07/10 02:13:27;;;;;;;10.60;8.97;;;;;;;;;;5079992;28;20441;-52
2022/07/10 02:15:53;;;;;;;11.73;9.90;;;;;;;;;;5076494;28;20447;-54
2022/07/10 02:18:19;;;;;;;13.07;10.50;;;;;;;;;;5081927;28;20505;-53
2022/07/10 02:20:45;;;;;;;12.10;10.90;;;;;;;;;;5068553;28;22020;-53
2022/07/10 02:23:11;;;;;;;13.03;10.60;;;;;;;;;;5087565;28;20439;-54
2022/07/10 02:25:56;;;;;;;12.60;11.27;;;;;;;;;;5079529;28;20503;-53
2022/07/10 02:28:22;;;;;;;13.30;11.93;;;;;;;;;;5085257;28;20593;-52
2022/07/10 02:31:25;;;;;;;13.20;12.00;;;;;;;;;;5088852;28;20457;-54
2022/07/10 02:33:59;;;;;;;15.97;13.70;;;;;;;;;;5082789;28;20448;-53
2022/07/10 02:36:48;;;;;;;14.00;12.50;;;;;;;;;;5080685;28;20951;-54
2022/07/10 02:39:14;;;;;;;13.80;12.10;;;;;;;;;;5104912;27;20429;-52
2022/07/10 02:41:46;;;;;;;14.20;11.13;;;;;;;;;;5071517;28;20425;-52
2022/07/10 02:44:14;;;;;;;18.70;12.87;;;;;;;;;;5084847;28;20428;-53
2022/07/10 02:46:41;;;;;;;15.07;12.53;;;;;;;;;;5082687;28;20746;-59
2022/07/10 02:49:07;;;;;;;18.20;14.77;;;;;;;;;;5091606;28;20514;-52
2022/07/10 02:51:33;;;;;;;20.17;14.03;;;;;;;;;;5059650;28;21029;-52
2022/07/10 02:53:59;;;;;;;15.87;14.10;;;;;;;;;;5086222;28;20889;-52
2022/07/10 02:56:41;;;;;;;17.90;14.53;;;;;;;;;;5073102;28;20448;-51
2022/07/10 02:59:10;;;;;;;19.90;16.63;;;;;;;;;;5083472;28;20458;-53
2022/07/10 03:01:36;;;;;;;15.50;14.00;;;;;;;;;;5060850;28;20805;-51
2022/07/10 03:04:03;;;;;;;18.47;14.30;;;;;;;;;;5086303;28;20432;-53
2022/07/10 03:06:53;;;;;;;18.20;15.47;;;;;;;;;;5082811;28;21009;-52
2022/07/10 03:09:19;;;;;;;17.47;14.93;;;;;;;;;;5089367;28;20433;-53
2022/07/10 03:11:45;;;;;;;20.60;14.67;;;;;;;;;;5063777;28;21068;-51
2022/07/10 03:14:11;;;;;;;20.10;14.60;;;;;;;;;;5086614;28;20930;-53
2022/07/10 03:16:42;;;;;;;17.40;14.70;;;;;;;;;;5077746;28;20487;-52
2022/07/10 03:19:09;;;;;;;16.47;14.70;;;;;;;;;;5082551;28;20455;-52
2022/07/10 03:21:39;;;;;;;20.07;15.20;;;;;;;;;;5094001;28;20509;-52
2022/07/10 03:24:06;;;;;;;21.60;16.87;;;;;;;;;;5080479;28;20445;-51
2022/07/10 03:26:45;;;;;;;18.50;15.83;;;;;;;;;;5076601;28;20882;-53
2022/07/10 03:29:13;;;;;;;17.40;15.00;;;;;;;;;;5081374;28;20450;-54
2022/07/10 03:32:02;;;;;;;16.00;14.30;;;;;;;;;;5080649;28;21233;-53
2022/07/10 03:34:34;;;;;;;15.23;13.17;;;;;;;;;;5078328;28;20497;-53
2022/07/10 03:37:01;;;;;;;17.70;14.57;;;;;;;;;;5058793;28;20516;-53
2022/07/10 03:39:27;;;;;;;19.53;14.67;;;;;;;;;;5070553;28;20437;-52
2022/07/10 03:41:53;;;;;;;18.83;14.80;;;;;;;;;;5076762;28;20443;-54
2022/07/10 03:44:19;;;;;;;14.87;13.27;;;;;;;;;;5064166;28;20439;-51
2022/07/10 03:46:45;;;;;;;17.40;15.63;;;;;;;;;;5085566;28;20477;-51
2022/07/10 03:49:15;;;;;;;17.90;13.70;;;;;;;;;;5080371;28;20574;-55
2022/07/10 03:52:18;;;;;;;16.50;14.77;;;;;;;;;;5082646;28;20433;-53
2022/07/10 03:54:54;;;;;;;17.13;13.43;;;;;;;;;;5076598;28;20455;-53
2022/07/10 04:00:14;;;;;;;15.67;13.90;;;;;;;;;;5078759;28;20484;-53
2022/07/10 04:03:04;;;;;;;17.90;14.07;;;;;;;;;;5080688;28;21076;-52
2022/07/10 04:05:37;;;;;;;17.03;12.40;;;;;;;;;;5080586;28;20445;-52
2022/07/10 04:08:27;;;;;;;13.07;11.77;;;;;;;;;;5071163;28;20472;-52
2022/07/10 04:10:55;;;;;;;16.93;13.63;;;;;;;;;;5083549;28;20434;-53
2022/07/10 04:13:27;;;;;;;16.47;12.77;;;;;;;;;;5081001;28;20883;-52
2022/07/10 04:15:53;;;;;;;14.50;12.90;;;;;;;;;;5083202;28;20979;-54
2022/07/10 04:18:19;;;;;;;13.30;11.90;;;;;;;;;;5077826;28;20653;-53
2022/07/10 04:20:45;;;;;;;15.00;13.50;;;;;;;;;;5085239;28;20434;-53
2022/07/10 04:23:24;;;;;;;13.67;12.00;;;;;;;;;;5068332;28;20440;-52
2022/07/10 04:25:50;;;;;;;15.03;13.13;;;;;;;;;;5082752;28;20618;-52
2022/07/10 04:28:16;;;;;;;13.57;11.87;;;;;;;;;;5071536;28;21074;-53
2022/07/10 04:30:42;;;;;;;14.73;13.30;;;;;;;;;;5082614;28;20198;-57
2022/07/10 04:36:11;;;;;;;15.03;12.30;;;;;;;;;;5065699;28;20443;-50
2022/07/10 04:38:37;;;;;;;12.70;11.50;;;;;;;;;;5082685;28;20611;-52
2022/07/10 04:41:03;;;;;;;16.60;13.00;;;;;;;;;;5100806;28;20436;-52
2022/07/10 04:43:30;;;;;;;15.13;12.77;;;;;;;;;;5046208;28;20799;-53
2022/07/10 04:45:56;;;;;;;14.80;11.73;;;;;;;;;;5079923;28;20424;-51
2022/07/10 04:48:28;;;;;;;14.07;11.30;;;;;;;;;;5069446;28;20528;-56
2022/07/10 04:50:54;;;;;;;15.40;11.23;;;;;;;;;;5086308;28;20178;-51
2022/07/10 04:53:40;;;;;;;13.43;10.50;;;;;;;;;;5081034;28;20441;-52
2022/07/10 04:56:07;;;;;;;11.53;9.87;;;;;;;;;;5082296;28;20449;-53
2022/07/10 04:59:18;;;;;;;9.93;8.10;;;;;;;;;;5078214;28;20502;-53
2022/07/10 05:01:49;;;;;;;8.90;8.00;;;;;;;;;;5076071;28;20456;-52
2022/07/10 05:04:44;;;;;;;12.63;8.93;;;;;;;;;;5080211;28;20486;-53
2022/07/10 05:07:12;;;;;;;9.50;7.63;;;;;;;;;;5074837;28;20476;-53
2022/07/10 05:09:38;;;;;;;9.57;7.63;;;;;;;;;;5079439;28;21079;-53
2022/07/10 05:12:04;;;;;;;9.77;7.27;;;;;;;;;;5087792;28;20516;-53
2022/07/10 05:14:30;;;;;;;8.40;7.57;;;;;;;;;;5074079;28;20472;-52
2022/07/10 05:16:56;;;;;;;7.23;6.50;;;;;;;;;;5069520;28;20542;-53
2022/07/10 05:22:15;;;;;;;10.63;8.50;;;;;;;;;;5071258;28;20666;-51
2022/07/10 05:24:42;;;;;;;7.40;6.70;;;;;;;;;;5072207;28;20466;-52
2022/07/10 05:27:08;;;;;;;8.00;6.97;;;;;;;;;;5074477;28;20479;-53
2022/07/10 05:29:34;;;;;;;7.07;6.37;;;;;;;;;;5068811;28;20436;-54
2022/07/10 05:32:00;;;;;;;7.73;7.03;;;;;;;;;;5070513;28;20437;-53
2022/07/10 05:37:30;;;;;;;5.67;5.07;;;;;;;;;;5052885;28;20917;-52
2022/07/10 05:39:56;;;;;;;10.37;5.60;;;;;;;;;;5078502;28;20432;-51
2022/07/10 05:42:22;;;;;;;5.07;4.57;;;;;;;;;;5083363;28;20193;-53
2022/07/10 05:44:48;;;;;;;5.33;4.70;;;;;;;;;;5077854;28;20432;-52
2022/07/10 05:47:14;;;;;;;6.30;5.30;;;;;;;;;;5084094;28;20476;-52
2022/07/10 05:50:11;;;;;;;4.90;4.50;;;;;;;;;;5079483;28;20179;-52
2022/07/10 05:52:44;;;;;;;5.03;4.50;;;;;;;;;;5083926;28;20655;-51
2022/07/10 05:55:16;;;;;;;5.63;3.90;;;;;;;;;;5062034;28;20456;-52
2022/07/10 05:57:42;;;;;;;6.00;3.90;;;;;;;;;;5081515;28;20471;-52
2022/07/10 06:00:08;;;;;;;7.90;3.57;;;;;;;;;;5067498;28;20440;-52
2022/07/10 06:02:34;;;;;;;4.93;3.83;;;;;;;;;;5090342;28;20430;-53
2022/07/10 06:05:04;;;;;;;4.70;3.90;;;;;;;;;;5079370;28;20444;-52
2022/07/10 06:07:30;;;;;;;5.43;3.60;;;;;;;;;;5074113;28;20492;-51
2022/07/10 06:10:11;;;;;;;6.27;3.93;;;;;;;;;;5076346;28;21164;-57
2022/07/10 06:12:38;;;;;;;5.50;3.27;;;;;;;;;;5083042;28;20435;-53
2022/07/10 06:15:04;;;;;;;4.77;3.10;;;;;;;;;;5054523;28;21293;-53
2022/07/10 06:17:30;;;;;;;3.67;3.00;;;;;;;;;;5092429;28;20524;-52
2022/07/10 06:20:04;;;;;;;4.93;3.40;;;;;;;;;;5079617;28;20437;-55
2022/07/10 06:22:30;;;;;;;4.07;3.63;;;;;;;;;;5076403;28;20432;-52
2022/07/10 06:24:56;;;;;;;5.40;3.27;;;;;;;;;;5058269;28;20429;-56
2022/07/10 06:27:23;;;;;;;6.50;3.10;;;;;;;;;;5093032;28;20222;-55
2022/07/10 06:29:49;;;;;;;7.70;3.13;;;;;;;;;;5061356;28;20471;-53
2022/07/10 06:32:15;;;;;;;5.67;3.77;;;;;;;;;;5065787;28;20445;-54
2022/07/10 06:34:41;;;;;;;4.20;3.80;;;;;;;;;;5093697;28;20530;-55
2022/07/10 06:37:07;;;;;;;4.53;3.77;;;;;;;;;;5063836;28;21249;-53
2022/07/10 06:39:36;;;;;;;4.70;3.60;;;;;;;;;;5081169;28;20440;-55
2022/07/10 06:42:14;;;;;;;5.27;3.30;;;;;;;;;;5054628;28;20545;-52
2022/07/10 06:44:40;;;;;;;6.50;4.20;;;;;;;;;;5084793;28;20776;-54
2022/07/10 06:50:08;;;;;;;7.33;4.80;;;;;;;;;;5080749;28;21130;-54
2022/07/10 06:52:34;;;;;;;4.37;3.37;;;;;;;;;;5080128;27;20432;-52
2022/07/10 06:55:01;;;;;;;5.30;2.80;;;;;;;;;;5083924;28;20429;-52
2022/07/10 06:57:27;;;;;;;6.50;3.57;;;;;;;;;;5072361;28;20559;-51
2022/07/10 06:59:53;;;;;;;5.33;3.20;;;;;;;;;;5084089;28;20432;-54
2022/07/10 07:02:19;;;;;;;7.93;3.03;;;;;;;;;;5053438;28;20442;-53
2022/07/10 07:04:53;;;;;;;7.50;3.37;;;;;;;;;;5084040;28;20500;-51
2022/07/10 07:07:19;;;;;;;4.57;3.90;;;;;;;;;;5080489;28;20498;-54
2022/07/10 07:09:49;;;;;;;2.80;2.53;;;;;;;;;;5079286;28;20429;-53
2022/07/10 07:12:23;;;;;;;3.57;3.00;;;;;;;;;;5059459;28;20454;-53
2022/07/10 07:14:49;;;;;;;4.13;3.03;;;;;;;;;;5075567;28;20527;-53
2022/07/10 07:23:15;;;;;;;3.07;2.77;;;;;;;;;;5083487;28;20447;-53
2022/07/10 07:25:48;;;;;;;2.83;2.20;;;;;;;;;;5066238;28;21066;-53
2022/07/10 07:28:19;;;;;;;3.70;2.40;;;;;;;;;;5079747;28;23135;-53
2022/07/10 07:30:46;;;;;;;3.70;2.80;;;;;;;;;;5060095;28;20526;-54
2022/07/10 07:33:13;;;;;;;5.33;2.60;;;;;;;;;;5082463;28;20437;-53
2022/07/10 07:35:39;;;;;;;3.30;2.80;;;;;;;;;;5072371;28;20429;-53
2022/07/10 07:38:07;;;;;;;3.17;2.17;;;;;;;;;;5078628;28;20462;-53
2022/07/10 07:40:33;;;;;;;3.30;2.27;;;;;;;;;;5077883;28;20433;-52
2022/07/10 07:42:59;;;;;;;3.93;2.30;;;;;;;;;;5079822;28;20513;-54
2022/07/10 07:45:25;;;;;;;3.47;2.50;;;;;;;;;;5051632;28;21378;-54
2022/07/10 07:47:55;;;;;;;3.57;1.73;;;;;;;;;;5072064;28;20499;-54
2022/07/10 07:50:28;;;;;;;4.53;2.33;;;;;;;;;;5074862;28;20440;-52
2022/07/10 07:52:54;;;;;;;3.03;2.73;;;;;;;;;;5075816;28;20537;-54
2022/07/10 07:55:20;;;;;;;2.40;1.73;;;;;;;;;;5074949;28;20513;-53
2022/07/10 07:57:46;;;;;;;3.07;1.90;;;;;;;;;;5058982;28;20439;-53
2022/07/10 08:00:22;;;;;;;3.47;2.10;;;;;;;;;;5079651;28;20896;-53
2022/07/10 08:02:48;;;;;;;2.93;2.07;;;;;;;;;;5058499;28;20439;-53
2022/07/10 08:05:14;;;;;;;2.73;2.00;;;;;;;;;;5076562;28;20451;-53
2022/07/10 08:07:44;;;;;;;2.90;1.90;;;;;;;;;;5055118;28;20480;-53
2022/07/10 08:10:11;;;;;;;3.87;2.10;;;;;;;;;;5075231;28;20437;-54
2022/07/10 08:12:38;;;;;;;2.93;1.83;;;;;;;;;;5073039;28;20433;-54
2022/07/10 08:15:05;;;;;;;4.00;2.23;;;;;;;;;;5080451;28;20429;-53
2022/07/10 08:17:33;;;;;;;2.20;1.57;;;;;;;;;;5056302;28;20877;-53
2022/07/10 08:19:59;;;;;;;3.50;2.20;;;;;;;;;;5084111;28;20895;-54
2022/07/10 08:22:25;;;;;;;3.37;1.90;;;;;;;;;;5073418;28;20432;-54
2022/07/10 08:24:52;;;;;;;4.07;1.83;;;;;;;;;;5077809;28;20445;-53
2022/07/10 08:27:18;;;;;;;7.63;1.97;;;;;;;;;;5062098;28;20479;-52
2022/07/10 08:29:44;;;;;;;3.33;2.00;;;;;;;;;;5079210;28;20456;-53
2022/07/10 08:32:10;;;;;;;2.37;2.17;;;;;;;;;;5058204;28;20497;-55
2022/07/10 08:34:36;;;;;;;5.83;2.30;;;;;;;;;;5077529;28;20440;-54
2022/07/10 08:37:03;;;;;;;7.83;2.73;;;;;;;;;;5055097;28;20559;-54
2022/07/10 08:39:37;;;;;;;3.53;1.33;;;;;;;;;;5079913;28;20941;-54
2022/07/10 08:42:07;;;;;;;4.00;2.47;;;;;;;;;;5040400;28;21112;-54
2022/07/10 08:44:34;;;;;;;2.77;1.57;;;;;;;;;;5068228;28;20728;-53
2022/07/10 08:47:32;;;;;;;2.60;1.87;;;;;;;;;;5072219;28;20606;-56
2022/07/10 08:49:58;;;;;;;2.60;1.73;;;;;;;;;;5080345;28;20436;-54
2022/07/10 08:52:31;;;;;;;3.30;2.13;;;;;;;;;;5052332;28;20440;-54
2022/07/10 08:54:57;;;;;;;6.30;1.70;;;;;;;;;;5079262;28;20908;-53
2022/07/10 08:57:24;;;;;;;5.50;2.50;;;;;;;;;;5074870;28;20432;-54
2022/07/10 08:59:50;;;;;;;2.30;1.60;;;;;;;;;;5079358;28;20201;-54
2022/07/10 09:02:16;;;;;;;2.63;1.77;;;;;;;;;;5053254;28;20433;-54
2022/07/10 09:04:45;;;;;;;2.87;2.30;;;;;;;;;;5093776;28;20455;-54
2022/07/10 09:07:12;;;;;;;3.20;1.50;;;;;;;;;;5075564;28;21240;-54
2022/07/10 09:09:58;;;;;;;5.10;2.23;;;;;;;;;;5076845;28;20507;-54
2022/07/10 09:12:27;;;;;;;3.93;1.90;;;;;;;;;;5055688;28;20448;-53
2022/07/10 09:15:19;;;;;;;1.97;1.77;;;;;;;;;;5071383;28;20478;-54
2022/07/10 09:17:56;;;;;;;2.93;1.43;;;;;;;;;;5074538;28;20454;-53
2022/07/10 09:20:36;;;;;;;3.23;1.40;;;;;;;;;;5090073;28;20444;-54
2022/07/10 09:23:18;;;;;;;6.90;1.90;;;;;;;;;;5052981;28;20452;-54
2022/07/10 09:25:45;;;;;;;2.33;1.70;;;;;;;;;;5076363;28;20449;-53
2022/07/10 09:28:11;;;;;;;3.93;2.10;;;;;;;;;;5053305;28;21014;-53
2022/07/10 09:30:38;;;;;;;2.40;1.90;;;;;;;;;;5074672;28;20796;-53
2022/07/10 09:33:22;;;;;;;2.40;1.70;;;;;;;;;;5083695;28;20703;-53
2022/07/10 09:38:49;;;;;;;1.80;1.40;;;;;;;;;;5061879;28;20738;-54
2022/07/10 09:41:26;;;;;;;6.90;1.80;;;;;;;;;;5080419;28;20420;-53
2022/07/10 09:44:08;;;;;;;5.07;1.63;;;;;;;;;;5056157;28;21040;-52
2022/07/10 09:46:35;;;;;;;3.00;1.87;;;;;;;;;;5076708;28;20428;-53
2022/07/10 09:49:06;;;;;;;2.20;1.90;;;;;;;;;;5075116;28;20468;-53
2022/07/10 09:51:39;;;;;;;3.37;1.80;;;;;;;;;;5076974;28;20441;-58
2022/07/10 09:54:06;;;;;;;2.20;1.67;;;;;;;;;;5052384;28;20828;-55
2022/07/10 09:56:46;;;;;;;2.93;2.07;;;;;;;;;;5080892;28;21048;-53
2022/07/10 09:59:14;;;;;;;2.40;1.90;;;;;;;;;;5059496;28;20895;-53
2022/07/10 10:01:58;;;;;;;3.77;1.77;;;;;;;;;;5083717;28;20420;-53
2022/07/10 10:04:28;;;;;;;4.50;2.20;;;;;;;;;;5066165;28;20536;-54
2022/07/10 10:06:56;;;;;;;3.37;2.00;;;;;;;;;;5082036;28;21197;-54
2022/07/10 10:09:28;;;;;;;2.20;1.97;;;;;;;;;;5063155;28;20508;-54
2022/07/10 10:11:57;;;;;;;2.93;2.17;;;;;;;;;;5085447;28;20441;-52
2022/07/10 10:14:23;;;;;;;2.43;1.90;;;;;;;;;;5058549;28;20893;-53
2022/07/10 10:16:49;;;;;;;3.57;2.00;;;;;;;;;;5087800;28;20889;-52
2022/07/10 10:21:59;;;;;;;3.70;2.07;;;;;;;;;;5083207;28;20430;-54
2022/07/10 10:24:26;;;;;;;4.27;2.27;;;;;;;;;;5054132;28;20440;-55
2022/07/10 10:26:54;;;;;;;2.60;1.77;;;;;;;;;;5081483;28;20218;-54
2022/07/10 10:29:20;;;;;;;2.70;1.70;;;;;;;;;;5064224;28;20543;-55
2022/07/10 10:31:49;;;;;;;1.97;1.50;;;;;;;;;;5085755;28;20599;-53
2022/07/10 10:34:17;;;;;;;7.60;2.30;;;;;;;;;;5056229;28;20535;-53
2022/07/10 10:36:44;;;;;;;3.30;1.50;;;;;;;;;;5083241;28;20448;-53
2022/07/10 10:39:13;;;;;;;3.20;1.70;;;;;;;;;;5063262;28;20531;-55
2022/07/10 10:41:42;;;;;;;2.17;1.60;;;;;;;;;;5080010;28;20431;-54
2022/07/10 10:46:37;;;;;;;3.67;1.90;;;;;;;;;;5055152;28;20449;-55
2022/07/10 10:49:06;;;;;;;2.83;1.80;;;;;;;;;;5083530;28;20440;-55
2022/07/10 10:51:51;;;;;;;3.00;2.30;;;;;;;;;;5048922;28;20432;-55
2022/07/10 10:54:18;;;;;;;4.60;2.00;;;;;;;;;;5077227;28;20509;-52
2022/07/10 10:56:44;;;;;;;3.33;2.00;;;;;;;;;;5048119;28;21149;-53
2022/07/10 10:59:10;;;;;;;3.80;2.40;;;;;;;;;;5079706;28;20441;-53
2022/07/10 11:01:39;;;;;;;2.53;1.73;;;;;;;;;;5067434;28;20483;-53
2022/07/10 11:04:04;;;;;;;3.87;2.23;;;;;;;;;;5083210;28;20466;-54
2022/07/10 11:06:46;;;;;;;4.33;2.10;;;;;;;;;;5062219;28;20479;-53
2022/07/10 11:09:41;;;;;;;2.87;2.00;;;;;;;;;;5078628;28;20847;-55
2022/07/10 11:12:17;;;;;;;2.90;1.80;;;;;;;;;;5067590;28;20867;-54
2022/07/10 11:14:52;;;;;;;6.17;3.17;;;;;;;;;;5102108;28;20481;-52
2022/07/10 11:17:21;;;;;;;3.30;2.10;;;;;;;;;;5076694;28;20467;-55
2022/07/10 11:19:47;;;;;;;1.97;1.60;;;;;;;;;;5080044;28;20491;-54
2022/07/10 11:22:42;;;;;;;2.27;1.90;;;;;;;;;;5067847;28;20466;-56
2022/07/10 11:25:11;;;;;;;2.30;1.73;;;;;;;;;;5086053;28;20981;-54
2022/07/10 11:27:58;;;;;;;2.13;1.50;;;;;;;;;;5058593;28;20488;-56
2022/07/10 11:33:48;;;;;;;3.10;1.40;;;;;;;;;;5024971;28;20435;-56
2022/07/10 11:36:14;;;;;;;2.90;1.57;;;;;;;;;;5067519;28;20597;-54
2022/07/10 11:39:14;;;;;;;3.47;1.70;;;;;;;;;;5069204;28;20645;-54
2022/07/10 11:41:47;;;;;;;3.50;1.70;;;;;;;;;;5074914;28;20451;-53
2022/07/10 11:44:32;;;;;;;3.63;1.63;;;;;;;;;;5064939;28;20437;-55
2022/07/10 11:47:02;;;;;;;4.00;1.37;;;;;;;;;;5078275;28;20472;-56
2022/07/10 11:49:42;;;;;;;1.70;1.20;;;;;;;;;;5052177;28;20507;-55
2022/07/10 11:52:09;;;;;;;1.97;1.43;;;;;;;;;;5085573;28;20504;-55
2022/07/10 11:54:54;;;;;;;1.90;1.33;;;;;;;;;;5071035;28;20432;-55
2022/07/10 11:57:30;;;;;;;2.30;1.33;;;;;;;;;;5075022;28;20736;-57
2022/07/10 11:59:59;;;;;;;3.93;2.90;;;;;;;;;;5054173;28;20895;-54
2022/07/10 12:02:28;;;;;;;3.50;1.30;;;;;;;;;;5082830;28;21393;-55
2022/07/10 12:05:04;;;;;;;2.10;1.37;;;;;;;;;;5059594;28;20569;-54
2022/07/10 12:07:30;;;;;;;3.43;2.47;;;;;;;;;;5082903;28;20591;-54
2022/07/10 12:09:56;;;;;;;5.47;1.60;;;;;;;;;;5054224;28;20443;-55
2022/07/10 12:12:38;;;;;;;2.00;1.50;;;;;;;;;;5059187;28;20523;-54
2022/07/10 12:15:06;;;;;;;2.00;1.37;;;;;;;;;;5043339;28;20483;-53
2022/07/10 12:17:33;;;;;;;2.60;1.63;;;;;;;;;;5069267;28;20428;-54
2022/07/10 12:19:59;;;;;;;3.83;1.90;;;;;;;;;;5045545;28;20583;-54
2022/07/10 12:23:01;;;;;;;3.90;1.40;;;;;;;;;;5060575;28;20456;-55
2022/07/10 12:25:39;;;;;;;2.47;1.47;;;;;;;;;;5062877;28;22046;-53
2022/07/10 12:28:05;;;;;;;2.33;1.23;;;;;;;;;;5081467;28;20502;-54
2022/07/10 12:33:35;;;;;;;2.40;1.30;;;;;;;;;;5048404;28;20956;-56
2022/07/10 12:36:01;;;;;;;1.97;1.20;;;;;;;;;;5057260;28;21004;-55
2022/07/10 12:38:36;;;;;;;1.70;1.10;;;;;;;;;;5062004;28;20520;-54
2022/07/10 12:41:28;;;;;;;3.80;1.10;;;;;;;;;;5048948;28;20472;-53
2022/07/10 12:43:57;;;;;;;2.43;1.20;;;;;;;;;;5093477;27;20445;-55
2022/07/10 12:46:23;;;;;;;1.60;1.20;;;;;;;;;;5068305;28;21010;-55
2022/07/10 12:49:12;;;;;;;4.77;1.20;;;;;;;;;;5073788;28;20480;-52
2022/07/10 12:51:48;;;;;;;2.53;1.10;;;;;;;;;;5053989;28;20447;-54
2022/07/10 12:54:33;;;;;;;2.60;1.40;;;;;;;;;;5070266;28;20424;-53
2022/07/10 12:57:25;;;;;;;3.70;1.20;;;;;;;;;;5051366;28;20459;-53
2022/07/10 13:00:14;;;;;;;5.90;1.27;;;;;;;;;;5060414;28;20666;-54
2022/07/10 13:02:55;;;;;;;2.57;1.17;;;;;;;;;;5053943;28;20551;-53
2022/07/10 13:08:25;;;;;;;3.97;1.27;;;;;;;;;;5050171;28;20482;-54
2022/07/10 13:11:01;;;;;;;2.13;1.00;;;;;;;;;;5074168;28;20846;-54
2022/07/10 13:13:28;;;;;;;3.30;1.10;;;;;;;;;;5073588;28;20444;-55
2022/07/10 13:15:56;;;;;;;5.40;0.90;;;;;;;;;;5061262;28;21777;-55
2022/07/10 13:18:24;;;;;;;2.67;0.90;;;;;;;;;;5061191;28;20933;-54
2022/07/10 13:20:58;;;;;;;4.13;0.90;;;;;;;;;;5072909;28;20434;-54
2022/07/10 13:23:42;;;;;;;1.47;0.80;;;;;;;;;;5081863;28;20444;-58
2022/07/10 13:26:09;;;;;;;2.13;0.70;;;;;;;;;;5055015;28;20485;-55
2022/07/10 13:28:35;;;;;;;1.53;0.83;;;;;;;;;;5068805;28;20467;-53
2022/07/10 13:31:24;;;;;;;2.87;1.10;;;;;;;;;;5060018;28;20685;-54
2022/07/10 13:33:53;;;;;;;1.40;0.70;;;;;;;;;;5080631;28;20427;-55
2022/07/10 13:36:46;;;;;;;1.97;0.70;;;;;;;;;;5080710;28;20483;-56
2022/07/10 13:39:21;;;;;;;4.90;1.67;;;;;;;;;;5075359;28;20433;-55
2022/07/10 13:42:13;;;;;;;2.63;1.00;;;;;;;;;;5065502;28;21317;-55
2022/07/10 13:44:43;;;;;;;1.90;1.00;;;;;;;;;;5075847;28;20435;-56
2022/07/10 13:47:09;;;;;;;3.40;1.37;;;;;;;;;;5057423;28;20558;-55
2022/07/10 13:49:35;;;;;;;2.60;1.27;;;;;;;;;;5075662;28;20471;-54
2022/07/10 13:52:21;;;;;;;2.00;0.90;;;;;;;;;;5075188;28;20491;-55
2022/07/10 13:54:48;;;;;;;2.27;1.10;;;;;;;;;;5071573;28;20962;-55
2022/07/10 13:57:14;;;;;;;1.90;1.10;;;;;;;;;;5047462;28;20444;-54
2022/07/10 13:59:40;;;;;;;2.13;0.97;;;;;;;;;;5074828;28;20464;-54
2022/07/10 14:02:08;;;;;;;3.20;0.90;;;;;;;;;;5079776;28;20430;-54
2022/07/10 14:04:35;;;;;;;1.90;1.00;;;;;;;;;;5081815;28;20769;-54
2022/07/10 14:07:23;;;;;;;2.03;0.87;;;;;;;;;;5056862;28;20465;-56
2022/07/10 14:09:49;;;;;;;1.53;0.83;;;;;;;;;;5069583;28;20931;-54
2022/07/10 14:12:19;;;;;;;2.20;1.27;;;;;;;;;;5077334;28;20557;-58
2022/07/10 14:14:46;;;;;;;1.50;0.90;;;;;;;;;;5067642;28;20616;-53
2022/07/10 14:17:44;;;;;;;2.23;0.97;;;;;;;;;;5077653;28;20428;-54
2022/07/10 14:21:20;;;;;;;3.00;1.43;;;;;;;;;;5065204;28;20939;-54
2022/07/10 14:23:28;;;;;;;4.60;1.10;;;;;;;;;;5069816;28;20457;-54
2022/07/10 14:25:54;;;;;;;1.90;1.30;;;;;;;;;;5074685;28;20487;-54
2022/07/10 14:28:51;;;;;;;2.37;1.17;;;;;;;;;;5075557;28;20475;-54
2022/07/10 14:31:28;;;;;;;2.90;1.10;;;;;;;;;;5066907;28;23396;-54
2022/07/10 14:33:54;;;;;;;2.50;1.03;;;;;;;;;;5061495;28;20914;-54
2022/07/10 14:36:22;;;;;;;5.43;1.30;;;;;;;;;;5077519;28;20850;-54
2022/07/10 14:39:12;;;;;;;2.13;1.40;;;;;;;;;;5081408;28;20436;-54
2022/07/10 14:41:42;;;;;;;2.90;1.20;;;;;;;;;;5072513;28;20798;-54
2022/07/10 14:44:08;;;;;;;2.67;1.13;;;;;;;;;;5054353;28;20988;-53
2022/07/10 14:47:03;;;;;;;2.73;1.07;;;;;;;;;;5070072;28;20428;-54
2022/07/10 14:49:41;;;;;;;1.50;1.10;;;;;;;;;;5081305;28;20501;-55
2022/07/10 14:52:08;;;;;;;3.17;1.07;;;;;;;;;;5069262;28;20444;-52
2022/07/10 14:54:34;;;;;;;2.70;0.93;;;;;;;;;;5082455;28;20428;-53
2022/07/10 14:57:02;;;;;;;2.57;1.33;;;;;;;;;;5054873;28;20463;-53
2022/07/10 14:59:29;;;;;;;4.03;1.37;;;;;;;;;;5057788;28;20440;-54
2022/07/10 15:02:44;;;;;;;;;;;;;;;;;;;;;
2022/07/10 15:05:16;;;;;;;4.70;1.27;;;;;;;;;;5072143;28;21062;-53
2022/07/10 15:08:25;;;;;;;1.67;1.10;;;;;;;;;;5075019;28;20469;-55
2022/07/10 15:11:06;;;;;;;3.30;1.50;;;;;;;;;;5026664;28;21008;-54
2022/07/10 15:13:37;;;;;;;6.57;1.37;;;;;;;;;;5030392;28;20835;-53
2022/07/10 15:16:03;;;;;;;1.87;1.10;;;;;;;;;;5074021;28;20929;-54
2022/07/10 15:18:34;;;;;;;2.60;0.97;;;;;;;;;;5065179;28;20537;-53
2022/07/10 15:21:02;;;;;;;5.93;1.57;;;;;;;;;;5073563;28;20496;-55
2022/07/10 15:23:44;;;;;;;3.93;1.23;;;;;;;;;;5058723;28;20436;-53
2022/07/10 15:26:20;;;;;;;1.90;1.20;;;;;;;;;;5077623;28;20433;-54
2022/07/10 15:28:47;;;;;;;1.30;1.00;;;;;;;;;;5051809;28;20472;-53
2022/07/10 15:31:13;;;;;;;1.37;1.00;;;;;;;;;;5074487;28;20523;-54
2022/07/10 15:33:45;;;;;;;1.57;0.97;;;;;;;;;;5055657;28;20871;-55
2022/07/10 15:36:12;;;;;;;2.70;1.13;;;;;;;;;;5077737;28;20452;-55
2022/07/10 15:38:39;;;;;;;1.50;1.10;;;;;;;;;;5045822;28;20459;-54
2022/07/10 15:41:05;;;;;;;1.77;1.00;;;;;;;;;;5074398;28;20439;-53
2022/07/10 15:43:42;;;;;;;1.53;0.93;;;;;;;;;;5069382;28;20461;-55
2022/07/10 15:46:09;;;;;;;1.60;1.20;;;;;;;;;;5071183;28;20429;-54
2022/07/10 15:48:38;;;;;;;2.80;0.90;;;;;;;;;;5039713;28;20567;-56